createdAt,value
2017-08-17T00:01:31.842Z,13.67
2017-08-17T00:03:59.404Z,15.20
2017-08-17T00:06:27.444Z,15.53
2017-08-17T00:08:55.025Z,15.30
2017-08-17T00:11:22.572Z,17.00
2017-08-17T00:13:50.171Z,15.67
2017-08-17T00:16:17.739Z,15.47
2017-08-17T00:18:46.429Z,16.70
2017-08-17T00:21:14.763Z,15.80
2017-08-17T00:23:42.333Z,17.13
2017-08-17T00:26:10.213Z,17.20
2017-08-17T00:28:38.538Z,16.03
2017-08-17T00:31:06.473Z,15.63
2017-08-17T00:33:34.048Z,14.50
2017-08-17T00:36:01.610Z,14.00
2017-08-17T00:38:29.236Z,14.80
2017-08-17T00:40:56.875Z,15.57
2017-08-17T00:43:24.771Z,14.73
2017-08-17T00:45:52.328Z,14.93
2017-08-17T00:48:19.925Z,14.00
2017-08-17T00:50:47.507Z,15.47
2017-08-17T00:53:15.109Z,15.00
2017-08-17T00:55:43.185Z,14.90
2017-08-17T00:58:11.512Z,16.33
2017-08-17T01:00:39.074Z,15.70
2017-08-17T01:03:06.685Z,17.57
2017-08-17T01:05:34.257Z,17.00
2017-08-17T01:08:02.897Z,16.23
2017-08-17T01:10:30.455Z,16.07
2017-08-17T01:12:58.009Z,16.17
2017-08-17T01:15:25.610Z,16.43
2017-08-17T01:17:53.173Z,15.93
2017-08-17T01:20:21.844Z,17.97
2017-08-17T01:22:49.432Z,15.63
2017-08-17T01:25:16.999Z,15.40
2017-08-17T01:27:44.749Z,15.17
2017-08-17T01:30:12.315Z,14.60
2017-08-17T01:32:40.358Z,15.17
2017-08-17T01:35:07.917Z,15.27
2017-08-17T01:37:35.479Z,16.30
2017-08-17T01:40:03.855Z,13.73
2017-08-17T01:42:31.417Z,13.63
2017-08-17T01:44:59.281Z,15.27
2017-08-17T01:47:27.673Z,14.93
2017-08-17T01:49:55.223Z,14.83
2017-08-17T01:52:23.244Z,14.67
2017-08-17T01:54:51.003Z,13.57
2017-08-17T01:57:19.020Z,15.10
2017-08-17T01:59:46.724Z,12.87
2017-08-17T02:02:14.288Z,13.70
2017-08-17T02:04:41.887Z,14.03
2017-08-17T02:07:09.443Z,14.43
2017-08-17T02:09:37.384Z,13.30
2017-08-17T02:12:04.948Z,15.13
2017-08-17T02:14:32.505Z,14.27
2017-08-17T02:17:00.107Z,13.50
2017-08-17T02:19:27.659Z,14.20
2017-08-17T02:21:55.614Z,15.23
2017-08-17T02:24:23.182Z,14.10
2017-08-17T02:26:50.746Z,14.77
2017-08-17T02:29:18.341Z,15.30
2017-08-17T02:31:45.906Z,13.00
2017-08-17T02:34:13.921Z,14.80
2017-08-17T02:36:41.498Z,14.87
2017-08-17T02:39:09.272Z,14.30
2017-08-17T02:41:36.879Z,13.83
2017-08-17T02:44:04.439Z,14.40
2017-08-17T02:46:32.448Z,13.80
2017-08-17T02:49:01.001Z,14.43
2017-08-17T02:51:28.602Z,15.13
2017-08-17T02:53:56.212Z,14.33
2017-08-17T02:56:23.781Z,14.83
2017-08-17T02:58:51.666Z,15.47
2017-08-17T03:01:19.244Z,15.40
2017-08-17T03:03:46.816Z,14.27
2017-08-17T03:06:14.461Z,13.40
2017-08-17T03:08:42.079Z,14.67
2017-08-17T03:11:10.097Z,13.67
2017-08-17T03:13:37.664Z,13.40
2017-08-17T03:16:05.230Z,13.43
2017-08-17T03:18:33.614Z,13.80
2017-08-17T03:21:01.179Z,13.30
2017-08-17T03:23:29.847Z,13.20
2017-08-17T03:25:57.423Z,13.17
2017-08-17T03:28:24.984Z,13.73
2017-08-17T03:30:53.411Z,14.63
2017-08-17T03:33:20.997Z,14.13
2017-08-17T03:35:48.968Z,14.93
2017-08-17T03:38:16.541Z,14.20
2017-08-17T03:40:44.104Z,14.40
2017-08-17T03:43:12.479Z,14.53
2017-08-17T03:45:40.031Z,15.07
2017-08-17T03:48:07.918Z,14.77
2017-08-17T03:50:36.356Z,15.30
2017-08-17T03:53:04.883Z,16.70
2017-08-17T03:55:32.509Z,16.73
2017-08-17T03:58:00.419Z,16.80
2017-08-17T04:00:28.461Z,15.83
2017-08-17T04:02:56.021Z,15.37
2017-08-17T04:05:23.582Z,16.57
2017-08-17T04:07:51.206Z,16.77
2017-08-17T04:10:18.766Z,17.57
2017-08-17T04:12:46.801Z,16.80
2017-08-17T04:15:14.382Z,16.90
2017-08-17T04:17:41.932Z,15.87
2017-08-17T04:20:09.758Z,16.17
2017-08-17T04:22:37.315Z,16.30
2017-08-17T04:25:05.272Z,15.50
2017-08-17T04:27:32.850Z,15.90
2017-08-17T04:30:00.414Z,16.00
2017-08-17T04:32:28.787Z,15.83
2017-08-17T04:34:56.365Z,16.67
2017-08-17T04:37:25.039Z,14.93
2017-08-17T04:39:53.546Z,16.17
2017-08-17T04:42:21.121Z,16.17
2017-08-17T04:44:48.739Z,18.07
2017-08-17T04:47:16.299Z,17.50
2017-08-17T04:49:44.986Z,14.63
2017-08-17T04:52:13.312Z,15.00
2017-08-17T04:54:40.860Z,15.70
2017-08-17T04:57:26.080Z,15.37
2017-08-17T04:59:53.656Z,17.33
2017-08-17T05:02:22.031Z,16.33
2017-08-17T05:04:49.609Z,14.23
2017-08-17T05:07:17.634Z,15.83
2017-08-17T05:09:45.200Z,15.93
2017-08-17T05:12:12.826Z,14.50
2017-08-17T05:14:40.436Z,13.80
2017-08-17T05:17:08.047Z,15.10
2017-08-17T05:19:35.958Z,18.20
2017-08-17T05:22:03.987Z,17.40
2017-08-17T05:24:31.549Z,17.33
2017-08-17T05:26:59.140Z,17.00
2017-08-17T05:29:26.709Z,16.83
2017-08-17T05:31:54.883Z,17.03
2017-08-17T05:34:22.460Z,15.37
2017-08-17T05:36:50.014Z,15.73
2017-08-17T05:39:18.437Z,15.80
2017-08-17T05:41:46.044Z,14.00
2017-08-17T05:44:14.029Z,15.50
2017-08-17T05:46:43.524Z,15.13
2017-08-17T05:49:11.082Z,13.50
2017-08-17T05:51:38.744Z,14.60
2017-08-17T05:54:06.354Z,14.40
2017-08-17T05:56:34.354Z,13.80
2017-08-17T05:59:01.912Z,14.23
2017-08-17T06:01:31.072Z,12.53
2017-08-17T06:03:58.652Z,13.37
2017-08-17T06:06:26.201Z,13.20
2017-08-17T06:08:53.793Z,13.07
2017-08-17T06:11:21.347Z,13.00
2017-08-17T06:13:49.196Z,12.73
2017-08-17T06:16:16.751Z,13.43
2017-08-17T06:18:44.323Z,12.17
2017-08-17T06:21:12.084Z,12.80
2017-08-17T06:23:39.841Z,13.30
2017-08-17T06:26:07.736Z,12.40
2017-08-17T06:28:35.281Z,13.53
2017-08-17T06:31:02.853Z,12.43
2017-08-17T06:33:30.454Z,13.63
2017-08-17T06:35:58.238Z,13.30
2017-08-17T06:38:26.257Z,13.50
2017-08-17T06:40:54.289Z,13.87
2017-08-17T06:43:21.867Z,13.33
2017-08-17T06:45:49.458Z,13.60
2017-08-17T06:48:17.054Z,14.07
2017-08-17T06:50:44.968Z,13.30
2017-08-17T06:53:12.535Z,12.93
2017-08-17T06:55:40.122Z,12.93
2017-08-17T06:58:08.511Z,12.90
2017-08-17T07:00:36.100Z,12.87
2017-08-17T07:03:04.000Z,13.80
2017-08-17T07:05:31.586Z,13.43
2017-08-17T07:07:59.923Z,11.90
2017-08-17T07:10:27.530Z,13.53
2017-08-17T07:12:55.103Z,14.10
2017-08-17T07:15:23.030Z,13.87
2017-08-17T07:17:50.587Z,12.97
2017-08-17T07:20:18.152Z,10.83
2017-08-17T07:22:45.754Z,13.50
2017-08-17T07:25:13.320Z,12.33
2017-08-17T07:27:41.184Z,12.90
2017-08-17T07:30:08.759Z,12.17
2017-08-17T07:32:36.397Z,12.27
2017-08-17T07:35:04.092Z,11.30
2017-08-17T07:37:31.670Z,11.23
2017-08-17T07:39:59.647Z,11.50
2017-08-17T07:42:27.233Z,11.40
2017-08-17T07:44:54.787Z,11.17
2017-08-17T07:47:23.205Z,11.60
2017-08-17T07:49:50.781Z,10.80
2017-08-17T07:52:18.777Z,12.00
2017-08-17T07:54:46.335Z,11.67
2017-08-17T07:57:13.915Z,11.13
2017-08-17T07:59:42.314Z,9.33
2017-08-17T08:02:09.887Z,10.57
2017-08-17T08:04:37.899Z,10.50
2017-08-17T08:07:05.457Z,9.60
2017-08-17T08:09:33.017Z,9.80
2017-08-17T08:12:00.644Z,9.13
2017-08-17T08:14:28.243Z,9.70
2017-08-17T08:16:56.223Z,9.73
2017-08-17T08:19:23.763Z,10.07
2017-08-17T08:21:51.319Z,8.20
2017-08-17T08:24:18.920Z,8.30
2017-08-17T08:26:46.583Z,9.47
2017-08-17T08:29:14.450Z,9.30
2017-08-17T08:31:42.767Z,10.37
2017-08-17T08:34:10.323Z,8.03
2017-08-17T08:36:37.925Z,7.87
2017-08-17T08:39:06.276Z,7.83
2017-08-17T08:41:34.282Z,9.60
2017-08-17T08:44:02.623Z,8.90
2017-08-17T08:46:30.570Z,7.60
2017-08-17T08:48:58.167Z,7.37
2017-08-17T08:51:25.737Z,7.97
2017-08-17T08:53:53.787Z,7.37
2017-08-17T08:56:21.365Z,7.00
2017-08-17T08:58:48.928Z,6.90
2017-08-17T09:01:16.490Z,7.53
2017-08-17T09:03:44.047Z,8.13
2017-08-17T09:06:12.911Z,6.77
2017-08-17T09:08:40.639Z,6.97
2017-08-17T09:11:08.206Z,7.40
2017-08-17T09:13:35.803Z,6.63
2017-08-17T09:16:03.386Z,7.93
2017-08-17T09:18:32.048Z,7.23
2017-08-17T09:20:59.687Z,6.70
2017-08-17T09:23:27.261Z,7.83
2017-08-17T09:25:54.864Z,7.40
2017-08-17T09:28:23.179Z,6.40
2017-08-17T09:30:51.166Z,7.20
2017-08-17T09:33:18.710Z,7.00
2017-08-17T09:35:46.253Z,5.97
2017-08-17T09:38:13.942Z,6.93
2017-08-17T09:40:41.516Z,6.90
2017-08-17T09:43:09.660Z,7.07
2017-08-17T09:45:37.230Z,7.07
2017-08-17T09:48:04.819Z,7.27
2017-08-17T09:50:32.432Z,7.80
2017-08-17T09:53:00.025Z,7.13
2017-08-17T09:55:27.977Z,7.70
2017-08-17T09:57:55.549Z,7.50
2017-08-17T10:00:23.370Z,6.50
2017-08-17T10:02:50.990Z,6.13
2017-08-17T10:05:18.551Z,7.40
2017-08-17T10:07:46.530Z,8.10
2017-08-17T10:10:14.857Z,7.30
2017-08-17T10:12:42.539Z,7.13
2017-08-17T10:15:10.141Z,7.30
2017-08-17T10:17:39.585Z,7.10
2017-08-17T10:20:07.660Z,7.67
2017-08-17T10:22:35.224Z,7.27
2017-08-17T10:25:02.779Z,6.80
2017-08-17T10:27:30.355Z,6.57
2017-08-17T10:29:57.913Z,6.20
2017-08-17T10:32:25.797Z,5.80
2017-08-17T10:34:53.352Z,6.40
2017-08-17T10:37:20.917Z,6.63
2017-08-17T10:39:48.497Z,5.53
2017-08-17T10:42:16.069Z,6.20
2017-08-17T10:44:43.933Z,6.50
2017-08-17T10:47:12.339Z,5.87
2017-08-17T10:49:39.914Z,5.27
2017-08-17T10:52:07.565Z,4.60
2017-08-17T10:54:35.156Z,5.53
2017-08-17T10:57:03.047Z,5.27
2017-08-17T10:59:31.387Z,5.90
2017-08-17T11:01:58.949Z,5.50
2017-08-17T11:04:26.532Z,6.10
2017-08-17T11:06:54.173Z,6.30
2017-08-17T11:09:22.046Z,6.67
2017-08-17T11:11:49.626Z,5.97
2017-08-17T11:14:17.184Z,6.93
2017-08-17T11:16:44.769Z,7.03
2017-08-17T11:19:13.088Z,5.07
2017-08-17T11:21:41.010Z,5.23
2017-08-17T11:24:08.545Z,5.70
2017-08-17T11:26:36.165Z,5.57
2017-08-17T11:29:03.790Z,5.30
2017-08-17T11:31:31.330Z,5.80
2017-08-17T11:33:59.982Z,6.57
2017-08-17T11:36:27.575Z,5.50
2017-08-17T11:38:55.134Z,5.50
2017-08-17T11:41:22.731Z,5.90
2017-08-17T11:43:50.289Z,5.83
2017-08-17T11:46:18.338Z,5.80
2017-08-17T11:48:46.224Z,5.90
2017-08-17T11:51:13.283Z,5.00
2017-08-17T11:53:40.895Z,5.73
2017-08-17T11:56:08.465Z,5.00
2017-08-17T11:58:36.429Z,5.67
2017-08-17T12:01:04.001Z,6.00
2017-08-17T12:03:31.574Z,5.90
2017-08-17T12:05:59.194Z,5.30
2017-08-17T12:08:26.832Z,5.37
2017-08-17T12:10:54.722Z,5.53
2017-08-17T12:13:22.286Z,5.93
2017-08-17T12:15:49.848Z,4.87
2017-08-17T12:18:17.445Z,4.33
2017-08-17T12:20:45.013Z,4.30
2017-08-17T12:23:13.030Z,5.17
2017-08-17T12:25:40.597Z,4.40
2017-08-17T12:28:08.173Z,4.10
2017-08-17T12:30:35.767Z,4.83
2017-08-17T12:33:03.439Z,4.80
2017-08-17T12:35:31.338Z,4.00
2017-08-17T12:37:58.958Z,3.70
2017-08-17T12:40:26.520Z,4.33
2017-08-17T12:42:54.129Z,4.70
2017-08-17T12:45:21.679Z,3.90
2017-08-17T12:47:49.659Z,4.33
2017-08-17T12:50:17.204Z,3.93
2017-08-17T12:52:44.760Z,3.67
2017-08-17T12:55:12.368Z,4.40
2017-08-17T12:57:39.944Z,3.53
2017-08-17T13:00:07.824Z,3.80
2017-08-17T13:02:35.386Z,3.90
2017-08-17T13:05:02.961Z,5.00
2017-08-17T13:07:30.563Z,4.10
2017-08-17T13:09:58.926Z,4.57
2017-08-17T13:12:26.871Z,4.90
2017-08-17T13:14:54.527Z,5.60
2017-08-17T13:17:22.328Z,5.40
2017-08-17T13:19:49.971Z,4.47
2017-08-17T13:22:17.628Z,4.87
2017-08-17T13:24:45.633Z,5.30
2017-08-17T13:27:13.967Z,5.10
2017-08-17T13:29:42.644Z,5.63
2017-08-17T13:32:10.279Z,5.83
2017-08-17T13:34:37.859Z,5.73
2017-08-17T13:37:05.776Z,5.80
2017-08-17T13:39:33.324Z,5.50
2017-08-17T13:42:00.941Z,5.50
2017-08-17T13:44:28.530Z,5.33
2017-08-17T13:46:56.102Z,5.47
2017-08-17T13:49:24.080Z,5.30
2017-08-17T13:51:51.776Z,5.70
2017-08-17T13:54:19.344Z,4.83
2017-08-17T13:56:46.942Z,5.70
2017-08-17T13:59:14.508Z,5.67
2017-08-17T14:01:42.384Z,6.07
2017-08-17T14:04:10.117Z,4.87
2017-08-17T14:06:37.692Z,5.10
2017-08-17T14:09:05.279Z,5.20
2017-08-17T14:11:32.832Z,5.63
2017-08-17T14:14:00.904Z,5.43
2017-08-17T14:16:28.475Z,6.43
2017-08-17T14:18:56.036Z,5.60
2017-08-17T14:21:24.404Z,5.60
2017-08-17T14:23:51.982Z,5.47
2017-08-17T14:26:20.637Z,6.20
2017-08-17T14:28:48.200Z,5.87
2017-08-17T14:31:15.752Z,6.80
2017-08-17T14:33:43.362Z,5.60
2017-08-17T14:36:10.943Z,5.90
2017-08-17T14:38:38.812Z,6.10
2017-08-17T14:41:06.379Z,5.93
2017-08-17T14:43:33.941Z,6.27
2017-08-17T14:46:01.576Z,5.30
2017-08-17T14:48:29.146Z,6.13
2017-08-17T14:50:57.060Z,6.10
2017-08-17T14:53:24.633Z,5.50
2017-08-17T14:55:52.227Z,6.20
2017-08-17T14:58:19.992Z,6.97
2017-08-17T15:00:47.563Z,5.67
2017-08-17T15:03:15.439Z,6.20
2017-08-17T15:05:43.011Z,5.70
2017-08-17T15:08:10.567Z,6.30
2017-08-17T15:10:38.214Z,5.40
2017-08-17T15:13:05.805Z,6.00
2017-08-17T15:15:33.677Z,6.30
2017-08-17T15:18:01.266Z,6.13
2017-08-17T15:20:28.824Z,6.30
2017-08-17T15:22:57.232Z,6.13
2017-08-17T15:25:24.773Z,6.20
2017-08-17T15:27:52.692Z,6.87
2017-08-17T15:30:20.274Z,6.30
2017-08-17T15:32:48.606Z,7.27
2017-08-17T15:35:16.217Z,7.17
2017-08-17T15:37:44.576Z,6.70
2017-08-17T15:40:12.718Z,8.00
2017-08-17T15:42:40.307Z,7.63
2017-08-17T15:45:07.880Z,6.87
2017-08-17T15:47:35.481Z,7.90
2017-08-17T15:50:03.039Z,7.53
2017-08-17T15:52:31.058Z,7.57
2017-08-17T15:54:58.625Z,7.70
2017-08-17T15:57:26.197Z,8.60
2017-08-17T15:59:54.569Z,7.40
2017-08-17T16:02:22.141Z,7.90
2017-08-17T16:04:50.806Z,7.97
2017-08-17T16:07:18.373Z,8.57
2017-08-17T16:09:45.945Z,7.67
2017-08-17T16:12:14.321Z,7.80
2017-08-17T16:14:41.910Z,6.70
2017-08-17T16:17:09.755Z,8.03
2017-08-17T16:19:38.086Z,7.60
2017-08-17T16:22:05.657Z,7.30
2017-08-17T16:24:33.260Z,6.27
2017-08-17T16:27:00.822Z,7.10
2017-08-17T16:29:28.793Z,7.73
2017-08-17T16:31:56.380Z,7.03
2017-08-17T16:34:23.957Z,6.90
2017-08-17T16:36:51.538Z,7.43
2017-08-17T16:39:19.096Z,7.70
2017-08-17T16:41:46.998Z,7.70
2017-08-17T16:44:14.663Z,8.20
2017-08-17T16:46:42.237Z,7.83
2017-08-17T16:49:09.845Z,7.37
2017-08-17T16:51:37.423Z,8.27
2017-08-17T16:54:06.103Z,7.97
2017-08-17T16:56:34.461Z,8.00
2017-08-17T16:59:02.027Z,7.80
2017-08-17T17:01:29.868Z,10.50
2017-08-17T17:03:57.436Z,8.40
2017-08-17T17:06:25.076Z,7.93
2017-08-17T17:08:52.638Z,8.30
2017-08-17T17:11:20.532Z,8.40
2017-08-17T17:13:48.103Z,8.77
2017-08-17T17:16:15.722Z,7.30
2017-08-17T17:18:43.349Z,8.73
2017-08-17T17:21:11.701Z,8.17
2017-08-17T17:23:39.586Z,8.47
2017-08-17T17:26:07.150Z,8.93
2017-08-17T17:28:36.052Z,8.93
2017-08-17T17:31:03.620Z,9.00
2017-08-17T17:33:31.202Z,8.57
2017-08-17T17:35:58.805Z,8.83
2017-08-17T17:38:26.395Z,8.33
2017-08-17T17:40:54.324Z,9.10
2017-08-17T17:43:21.904Z,9.97
2017-08-17T17:45:49.472Z,10.20
2017-08-17T17:48:17.831Z,9.63
2017-08-17T17:50:45.374Z,10.77
2017-08-17T17:53:12.976Z,10.20
2017-08-17T17:55:40.554Z,8.77
2017-08-17T17:58:08.178Z,8.57
2017-08-17T18:00:36.526Z,8.33
2017-08-17T18:03:04.277Z,9.43
2017-08-17T18:05:31.913Z,9.20
2017-08-17T18:07:59.842Z,9.13
2017-08-17T18:10:27.413Z,8.13
2017-08-17T18:12:54.984Z,9.60
2017-08-17T18:15:23.384Z,9.20
2017-08-17T18:17:50.956Z,9.90
2017-08-17T18:20:18.968Z,9.23
2017-08-17T18:22:46.517Z,9.83
2017-08-17T18:25:14.099Z,9.63
2017-08-17T18:27:42.634Z,9.60
2017-08-17T18:30:10.349Z,9.30
2017-08-17T18:32:37.948Z,8.80
2017-08-17T18:35:05.765Z,9.53
2017-08-17T18:37:33.384Z,10.33
2017-08-17T18:40:00.998Z,11.03
2017-08-17T18:42:28.575Z,9.60
2017-08-17T18:44:56.608Z,10.97
2017-08-17T18:47:24.159Z,11.00
2017-08-17T18:49:51.729Z,10.27
2017-08-17T18:52:19.515Z,10.70
2017-08-17T18:54:47.092Z,11.33
2017-08-17T18:57:14.991Z,10.33
2017-08-17T18:59:42.561Z,13.20
2017-08-17T19:02:10.113Z,9.07
2017-08-17T19:04:37.858Z,10.90
2017-08-17T19:07:05.472Z,11.30
2017-08-17T19:09:33.108Z,10.70
2017-08-17T19:12:00.674Z,10.80
2017-08-17T19:14:28.766Z,11.83
2017-08-17T19:16:57.103Z,10.57
2017-08-17T19:19:24.676Z,9.80
2017-08-17T19:21:52.283Z,12.63
2017-08-17T19:24:19.848Z,10.17
2017-08-17T19:26:47.437Z,11.00
2017-08-17T19:29:15.008Z,10.10
2017-08-17T19:31:43.129Z,10.17
2017-08-17T19:34:10.703Z,10.70
2017-08-17T19:36:38.274Z,10.53
2017-08-17T19:39:05.878Z,9.73
2017-08-17T19:41:33.439Z,10.20
2017-08-17T19:44:01.525Z,9.40
2017-08-17T19:46:29.093Z,9.93
2017-08-17T19:48:56.667Z,10.33
2017-08-17T19:51:25.063Z,10.57
2017-08-17T19:53:52.611Z,9.90
2017-08-17T19:56:20.653Z,9.60
2017-08-17T19:58:48.272Z,8.93
2017-08-17T20:01:15.853Z,10.40
2017-08-17T20:03:44.904Z,9.87
2017-08-17T20:06:12.506Z,10.53
2017-08-17T20:08:40.397Z,9.90
2017-08-17T20:11:08.131Z,13.13
2017-08-17T20:13:35.721Z,10.80
2017-08-17T20:16:03.344Z,10.40
2017-08-17T20:18:30.936Z,10.67
2017-08-17T20:20:59.004Z,9.23
2017-08-17T20:23:26.596Z,9.43
2017-08-17T20:25:54.176Z,9.10
2017-08-17T20:28:22.037Z,9.47
2017-08-17T20:30:49.659Z,10.37
2017-08-17T20:33:17.301Z,10.03
2017-08-17T20:35:44.907Z,8.50
2017-08-17T20:38:12.949Z,9.60
2017-08-17T20:40:40.524Z,10.30
2017-08-17T20:43:08.253Z,10.77
2017-08-17T20:45:35.858Z,10.17
2017-08-17T20:48:03.438Z,9.67
2017-08-17T20:50:31.476Z,10.70
2017-08-17T20:52:59.808Z,11.10
2017-08-17T20:55:27.384Z,10.07
2017-08-17T20:57:55.007Z,10.17
2017-08-17T21:00:22.579Z,10.13
2017-08-17T21:02:50.597Z,9.07
2017-08-17T21:05:18.173Z,10.77
2017-08-17T21:07:45.756Z,11.13
2017-08-17T21:10:13.565Z,10.90
2017-08-17T21:12:41.144Z,10.43
2017-08-17T21:15:09.095Z,11.17
2017-08-17T21:17:36.660Z,10.83
2017-08-17T21:20:04.274Z,11.37
2017-08-17T21:22:31.930Z,9.73
2017-08-17T21:24:59.520Z,10.83
2017-08-17T21:27:27.426Z,11.30
2017-08-17T21:29:54.997Z,10.57
2017-08-17T21:32:22.551Z,11.53
2017-08-17T21:34:50.960Z,10.20
2017-08-17T21:37:18.532Z,10.97
2017-08-17T21:39:46.534Z,10.67
2017-08-17T21:42:14.097Z,11.00
2017-08-17T21:44:41.681Z,11.10
2017-08-17T21:47:10.078Z,11.40
2017-08-17T21:49:37.631Z,12.20
2017-08-17T21:52:05.989Z,12.07
2017-08-17T21:54:33.703Z,11.47
2017-08-17T21:57:01.277Z,12.03
2017-08-17T21:59:29.159Z,9.40
2017-08-17T22:01:56.861Z,11.70
2017-08-17T22:04:24.440Z,14.10
2017-08-17T22:06:52.087Z,11.00
2017-08-17T22:09:19.662Z,11.67
2017-08-17T22:11:47.512Z,11.77
2017-08-17T22:14:15.076Z,36.13
2017-08-17T22:16:42.632Z,10.53
2017-08-17T22:19:10.547Z,11.07
2017-08-17T22:21:38.103Z,11.43
2017-08-17T22:24:05.671Z,11.40
2017-08-17T22:26:33.280Z,11.27
2017-08-17T22:29:00.840Z,11.17
2017-08-17T22:31:28.871Z,12.50
2017-08-17T22:33:56.439Z,11.80
2017-08-17T22:36:24.008Z,10.40
2017-08-17T22:38:52.419Z,11.40
2017-08-17T22:41:19.975Z,10.43
2017-08-17T22:43:48.016Z,10.60
2017-08-17T22:46:16.361Z,11.80
2017-08-17T22:48:43.920Z,9.93
2017-08-17T22:51:11.529Z,10.03
2017-08-17T22:53:39.092Z,12.23
2017-08-17T22:56:07.140Z,10.77
2017-08-17T22:58:34.701Z,16.33
2017-08-17T23:01:02.289Z,10.07
2017-08-17T23:03:29.915Z,10.43
2017-08-17T23:05:57.486Z,9.83
2017-08-17T23:08:25.669Z,10.20
2017-08-17T23:10:54.008Z,10.10
2017-08-17T23:13:21.559Z,10.53
2017-08-17T23:15:49.178Z,9.00
2017-08-17T23:18:17.185Z,11.13
2017-08-17T23:20:45.179Z,8.83
2017-08-17T23:23:12.751Z,10.20
2017-08-17T23:25:40.341Z,9.97
2017-08-17T23:28:07.972Z,9.00
2017-08-17T23:30:35.532Z,9.43
2017-08-17T23:33:03.147Z,8.60
2017-08-17T23:35:30.729Z,10.50
2017-08-17T23:37:58.638Z,9.80
2017-08-17T23:40:27.001Z,9.10
2017-08-17T23:42:54.589Z,9.13
2017-08-17T23:45:22.222Z,8.70
2017-08-17T23:47:49.828Z,9.37
2017-08-17T23:50:17.792Z,9.37
2017-08-17T23:52:45.351Z,9.37
2017-08-17T23:55:12.939Z,8.30
2017-08-17T23:57:40.653Z,9.20
